Westerville, Ohio
Current Conditions -  °F | °C
As of 7:53 PM on Friday 19 Dec 2014 (Local Time) from KOSU Reporting Station
Overcast Overcast  
Wind Chill: 24°   Ceiling: 1800
Heat Index: 30°   Visibility: 9mi
Dew Point: 22°   Wind: 6mph
Humidity: 72%   Direction: 320°NW
Pressure: 30.29"   Gusts: NA
Location:  40.13°N, 82.93°W
Report Text: KOSU 200053Z 32005KT 9SM OVC018 M01/M06 A3029 RMK AO2 SLP268 T10111056
Loading
Personal Weather Stations






























Interactive Weather Map New forecast layout! Learn more

10-Day Weather Forecast

Advertisements
Track Severe Weather on mobile